sensor_id;sensor_type;location;lat;lon;timestamp;P1;durP1;ratioP1;P2;durP2;ratioP2
6832;SDS011;3454;42.654;23.378;2024-01-16T00:01:41;16.43;;;7.00;;
6832;SDS011;3454;42.654;23.378;2024-01-16T00:04:09;11.20;;;6.73;;
6832;SDS011;3454;42.654;23.378;2024-01-16T00:06:39;13.57;;;7.40;;
6832;SDS011;3454;42.654;23.378;2024-01-16T00:09:08;14.47;;;8.07;;
6832;SDS011;3454;42.654;23.378;2024-01-16T00:11:40;12.80;;;8.50;;
6832;SDS011;3454;42.654;23.378;2024-01-16T00:14:09;13.43;;;8.17;;
6832;SDS011;3454;42.654;23.378;2024-01-16T00:16:45;11.30;;;6.93;;
6832;SDS011;3454;42.654;23.378;2024-01-16T00:19:12;14.43;;;8.40;;
6832;SDS011;3454;42.654;23.378;2024-01-16T00:21:42;15.50;;;7.57;;
6832;SDS011;3454;42.654;23.378;2024-01-16T00:24:11;11.93;;;6.63;;
6832;SDS011;3454;42.654;23.378;2024-01-16T00:26:54;12.93;;;7.00;;
6832;SDS011;3454;42.654;23.378;2024-01-16T00:29:20;12.50;;;6.70;;
6832;SDS011;3454;42.654;23.378;2024-01-16T00:31:45;11.63;;;6.73;;
6832;SDS011;3454;42.654;23.378;2024-01-16T00:34:11;13.47;;;7.03;;
6832;SDS011;3454;42.654;23.378;2024-01-16T00:36:36;12.00;;;6.03;;
6832;SDS011;3454;42.654;23.378;2024-01-16T00:39:02;13.63;;;6.63;;
6832;SDS011;3454;42.654;23.378;2024-01-16T00:41:28;11.67;;;6.20;;
6832;SDS011;3454;42.654;23.378;2024-01-16T00:43:55;11.10;;;6.60;;
6832;SDS011;3454;42.654;23.378;2024-01-16T00:46:20;13.67;;;6.70;;
6832;SDS011;3454;42.654;23.378;2024-01-16T00:48:46;9.93;;;6.67;;
6832;SDS011;3454;42.654;23.378;2024-01-16T00:51:12;8.70;;;5.60;;
6832;SDS011;3454;42.654;23.378;2024-01-16T00:53:41;9.53;;;5.87;;
6832;SDS011;3454;42.654;23.378;2024-01-16T00:56:08;10.97;;;5.63;;
6832;SDS011;3454;42.654;23.378;2024-01-16T00:58:34;13.37;;;5.97;;
6832;SDS011;3454;42.654;23.378;2024-01-16T01:00:59;10.23;;;6.03;;
6832;SDS011;3454;42.654;23.378;2024-01-16T01:03:25;10.10;;;5.87;;
6832;SDS011;3454;42.654;23.378;2024-01-16T01:05:50;7.93;;;5.17;;
6832;SDS011;3454;42.654;23.378;2024-01-16T01:08:16;10.87;;;6.10;;
6832;SDS011;3454;42.654;23.378;2024-01-16T01:10:43;9.80;;;5.83;;
6832;SDS011;3454;42.654;23.378;2024-01-16T01:13:08;9.23;;;6.40;;
6832;SDS011;3454;42.654;23.378;2024-01-16T01:15:34;11.67;;;6.73;;
6832;SDS011;3454;42.654;23.378;2024-01-16T01:17:59;9.83;;;6.57;;
6832;SDS011;3454;42.654;23.378;2024-01-16T01:20:25;12.67;;;6.23;;
6832;SDS011;3454;42.654;23.378;2024-01-16T01:22:51;9.83;;;6.03;;
6832;SDS011;3454;42.654;23.378;2024-01-16T01:25:17;12.37;;;6.93;;
6832;SDS011;3454;42.654;23.378;2024-01-16T01:27:43;10.37;;;6.30;;
6832;SDS011;3454;42.654;23.378;2024-01-16T01:30:09;11.87;;;6.23;;
6832;SDS011;3454;42.654;23.378;2024-01-16T01:32:38;9.60;;;6.17;;
6832;SDS011;3454;42.654;23.378;2024-01-16T01:35:04;8.87;;;6.10;;
6832;SDS011;3454;42.654;23.378;2024-01-16T01:37:31;9.03;;;6.27;;
6832;SDS011;3454;42.654;23.378;2024-01-16T01:39:56;13.00;;;6.80;;
6832;SDS011;3454;42.654;23.378;2024-01-16T01:42:22;11.87;;;7.17;;
6832;SDS011;3454;42.654;23.378;2024-01-16T01:44:48;11.77;;;7.20;;
6832;SDS011;3454;42.654;23.378;2024-01-16T01:47:13;12.37;;;6.53;;
6832;SDS011;3454;42.654;23.378;2024-01-16T01:49:40;7.70;;;5.97;;
6832;SDS011;3454;42.654;23.378;2024-01-16T01:52:06;11.63;;;7.73;;
6832;SDS011;3454;42.654;23.378;2024-01-16T01:54:33;11.50;;;6.20;;
6832;SDS011;3454;42.654;23.378;2024-01-16T01:57:01;11.43;;;6.60;;
6832;SDS011;3454;42.654;23.378;2024-01-16T01:59:28;11.13;;;6.80;;
6832;SDS011;3454;42.654;23.378;2024-01-16T02:01:56;10.77;;;7.07;;
6832;SDS011;3454;42.654;23.378;2024-01-16T02:04:22;9.93;;;5.57;;
6832;SDS011;3454;42.654;23.378;2024-01-16T02:06:50;12.70;;;6.63;;
6832;SDS011;3454;42.654;23.378;2024-01-16T02:09:15;11.30;;;6.40;;
6832;SDS011;3454;42.654;23.378;2024-01-16T02:11:44;10.63;;;6.17;;
6832;SDS011;3454;42.654;23.378;2024-01-16T02:14:10;8.50;;;5.77;;
6832;SDS011;3454;42.654;23.378;2024-01-16T02:16:37;11.00;;;6.17;;
6832;SDS011;3454;42.654;23.378;2024-01-16T02:19:05;9.87;;;6.10;;
6832;SDS011;3454;42.654;23.378;2024-01-16T02:21:36;10.47;;;6.20;;
6832;SDS011;3454;42.654;23.378;2024-01-16T02:24:07;11.47;;;5.67;;
6832;SDS011;3454;42.654;23.378;2024-01-16T02:26:34;10.60;;;5.67;;
6832;SDS011;3454;42.654;23.378;2024-01-16T02:29:00;8.97;;;5.43;;
6832;SDS011;3454;42.654;23.378;2024-01-16T02:31:28;7.50;;;4.80;;
6832;SDS011;3454;42.654;23.378;2024-01-16T02:33:53;10.87;;;5.60;;
6832;SDS011;3454;42.654;23.378;2024-01-16T02:36:19;7.17;;;4.97;;
6832;SDS011;3454;42.654;23.378;2024-01-16T02:38:44;8.27;;;5.43;;
6832;SDS011;3454;42.654;23.378;2024-01-16T02:41:12;10.17;;;5.23;;
6832;SDS011;3454;42.654;23.378;2024-01-16T02:43:39;9.13;;;5.63;;
6832;SDS011;3454;42.654;23.378;2024-01-16T02:46:04;8.83;;;5.77;;
6832;SDS011;3454;42.654;23.378;2024-01-16T02:48:30;8.93;;;5.43;;
6832;SDS011;3454;42.654;23.378;2024-01-16T02:50:56;7.83;;;5.17;;
6832;SDS011;3454;42.654;23.378;2024-01-16T02:53:21;7.10;;;4.53;;
6832;SDS011;3454;42.654;23.378;2024-01-16T02:55:47;8.57;;;5.30;;
6832;SDS011;3454;42.654;23.378;2024-01-16T02:58:12;9.20;;;5.10;;
6832;SDS011;3454;42.654;23.378;2024-01-16T03:00:38;8.60;;;5.13;;
6832;SDS011;3454;42.654;23.378;2024-01-16T03:03:03;10.17;;;5.07;;
6832;SDS011;3454;42.654;23.378;2024-01-16T03:05:29;8.33;;;4.50;;
6832;SDS011;3454;42.654;23.378;2024-01-16T03:07:55;8.00;;;5.50;;
6832;SDS011;3454;42.654;23.378;2024-01-16T03:10:20;7.27;;;4.87;;
6832;SDS011;3454;42.654;23.378;2024-01-16T03:12:46;7.67;;;4.87;;
6832;SDS011;3454;42.654;23.378;2024-01-16T03:15:12;7.00;;;4.93;;
6832;SDS011;3454;42.654;23.378;2024-01-16T03:17:37;7.50;;;5.10;;
6832;SDS011;3454;42.654;23.378;2024-01-16T03:20:03;7.33;;;4.80;;
6832;SDS011;3454;42.654;23.378;2024-01-16T03:22:29;7.53;;;4.37;;
6832;SDS011;3454;42.654;23.378;2024-01-16T03:24:54;7.80;;;4.97;;
6832;SDS011;3454;42.654;23.378;2024-01-16T03:27:20;8.43;;;5.33;;
6832;SDS011;3454;42.654;23.378;2024-01-16T03:29:45;9.13;;;5.37;;
6832;SDS011;3454;42.654;23.378;2024-01-16T03:32:11;8.33;;;5.00;;
6832;SDS011;3454;42.654;23.378;2024-01-16T03:34:36;8.80;;;5.43;;
6832;SDS011;3454;42.654;23.378;2024-01-16T03:37:02;7.23;;;5.40;;
6832;SDS011;3454;42.654;23.378;2024-01-16T03:39:28;5.47;;;3.80;;
6832;SDS011;3454;42.654;23.378;2024-01-16T03:41:53;5.43;;;4.23;;
6832;SDS011;3454;42.654;23.378;2024-01-16T03:44:19;6.60;;;4.00;;
6832;SDS011;3454;42.654;23.378;2024-01-16T03:46:44;3.20;;;2.90;;
6832;SDS011;3454;42.654;23.378;2024-01-16T03:49:10;3.00;;;2.70;;
6832;SDS011;3454;42.654;23.378;2024-01-16T03:51:35;3.57;;;2.57;;
6832;SDS011;3454;42.654;23.378;2024-01-16T03:54:01;4.37;;;2.70;;
6832;SDS011;3454;42.654;23.378;2024-01-16T03:56:28;2.60;;;2.40;;
6832;SDS011;3454;42.654;23.378;2024-01-16T03:58:54;3.20;;;2.47;;
6832;SDS011;3454;42.654;23.378;2024-01-16T04:01:29;2.47;;;2.17;;
6832;SDS011;3454;42.654;23.378;2024-01-16T04:03:58;2.93;;;2.60;;
6832;SDS011;3454;42.654;23.378;2024-01-16T04:06:24;3.13;;;2.60;;
6832;SDS011;3454;42.654;23.378;2024-01-16T04:08:51;3.47;;;1.93;;
6832;SDS011;3454;42.654;23.378;2024-01-16T04:11:16;2.63;;;2.13;;
6832;SDS011;3454;42.654;23.378;2024-01-16T04:13:43;2.13;;;1.93;;
6832;SDS011;3454;42.654;23.378;2024-01-16T04:16:08;2.10;;;1.80;;
6832;SDS011;3454;42.654;23.378;2024-01-16T04:18:37;3.50;;;2.07;;
6832;SDS011;3454;42.654;23.378;2024-01-16T04:21:05;2.93;;;2.00;;
6832;SDS011;3454;42.654;23.378;2024-01-16T04:23:31;1.70;;;1.60;;
6832;SDS011;3454;42.654;23.378;2024-01-16T04:25:57;2.13;;;1.70;;
6832;SDS011;3454;42.654;23.378;2024-01-16T04:28:23;2.43;;;1.77;;
6832;SDS011;3454;42.654;23.378;2024-01-16T04:30:49;2.60;;;1.67;;
6832;SDS011;3454;42.654;23.378;2024-01-16T04:33:14;1.93;;;1.67;;
6832;SDS011;3454;42.654;23.378;2024-01-16T04:35:40;1.70;;;1.43;;
6832;SDS011;3454;42.654;23.378;2024-01-16T04:38:06;1.40;;;1.23;;
6832;SDS011;3454;42.654;23.378;2024-01-16T04:40:32;2.03;;;1.40;;
6832;SDS011;3454;42.654;23.378;2024-01-16T04:42:58;1.80;;;1.40;;
6832;SDS011;3454;42.654;23.378;2024-01-16T04:45:25;1.53;;;1.20;;
6832;SDS011;3454;42.654;23.378;2024-01-16T04:47:52;3.43;;;2.43;;
6832;SDS011;3454;42.654;23.378;2024-01-16T04:50:18;1.50;;;1.30;;
6832;SDS011;3454;42.654;23.378;2024-01-16T04:52:44;1.77;;;1.50;;
6832;SDS011;3454;42.654;23.378;2024-01-16T04:55:10;1.40;;;1.30;;
6832;SDS011;3454;42.654;23.378;2024-01-16T04:57:35;1.10;;;1.10;;
6832;SDS011;3454;42.654;23.378;2024-01-16T05:00:01;1.27;;;1.17;;
6832;SDS011;3454;42.654;23.378;2024-01-16T05:02:31;1.20;;;1.13;;
6832;SDS011;3454;42.654;23.378;2024-01-16T05:04:59;1.30;;;1.17;;
6832;SDS011;3454;42.654;23.378;2024-01-16T05:07:25;1.87;;;1.33;;
6832;SDS011;3454;42.654;23.378;2024-01-16T05:09:51;1.43;;;1.13;;
6832;SDS011;3454;42.654;23.378;2024-01-16T05:12:17;1.47;;;1.10;;
6832;SDS011;3454;42.654;23.378;2024-01-16T05:14:43;0.90;;;0.83;;
6832;SDS011;3454;42.654;23.378;2024-01-16T05:17:08;1.13;;;1.00;;
6832;SDS011;3454;42.654;23.378;2024-01-16T05:19:34;1.23;;;1.10;;
6832;SDS011;3454;42.654;23.378;2024-01-16T05:22:00;1.23;;;0.97;;
6832;SDS011;3454;42.654;23.378;2024-01-16T05:24:26;1.30;;;1.20;;
6832;SDS011;3454;42.654;23.378;2024-01-16T05:26:51;1.40;;;1.20;;
6832;SDS011;3454;42.654;23.378;2024-01-16T05:29:18;2.97;;;1.00;;
6832;SDS011;3454;42.654;23.378;2024-01-16T05:31:43;5.17;;;1.23;;
6832;SDS011;3454;42.654;23.378;2024-01-16T05:34:09;1.37;;;1.23;;
6832;SDS011;3454;42.654;23.378;2024-01-16T05:36:35;1.10;;;1.00;;
6832;SDS011;3454;42.654;23.378;2024-01-16T05:39:01;1.13;;;1.00;;
6832;SDS011;3454;42.654;23.378;2024-01-16T05:41:31;1.43;;;1.00;;
6832;SDS011;3454;42.654;23.378;2024-01-16T05:43:58;0.80;;;0.80;;
6832;SDS011;3454;42.654;23.378;2024-01-16T05:46:23;1.20;;;1.10;;
6832;SDS011;3454;42.654;23.378;2024-01-16T05:48:49;1.40;;;1.30;;
6832;SDS011;3454;42.654;23.378;2024-01-16T05:51:15;1.37;;;1.23;;
6832;SDS011;3454;42.654;23.378;2024-01-16T05:53:41;1.50;;;1.40;;
6832;SDS011;3454;42.654;23.378;2024-01-16T05:56:08;1.47;;;1.23;;
6832;SDS011;3454;42.654;23.378;2024-01-16T05:58:34;1.23;;;1.10;;
6832;SDS011;3454;42.654;23.378;2024-01-16T06:01:04;3.70;;;2.43;;
6832;SDS011;3454;42.654;23.378;2024-01-16T06:03:37;1.10;;;1.00;;
6832;SDS011;3454;42.654;23.378;2024-01-16T06:06:03;1.73;;;1.07;;
6832;SDS011;3454;42.654;23.378;2024-01-16T06:08:28;1.20;;;1.10;;
6832;SDS011;3454;42.654;23.378;2024-01-16T06:10:55;1.40;;;1.30;;
6832;SDS011;3454;42.654;23.378;2024-01-16T06:13:20;1.60;;;1.10;;
6832;SDS011;3454;42.654;23.378;2024-01-16T06:15:48;0.90;;;0.90;;
6832;SDS011;3454;42.654;23.378;2024-01-16T06:18:14;1.33;;;1.03;;
6832;SDS011;3454;42.654;23.378;2024-01-16T06:20:40;1.20;;;0.97;;
6832;SDS011;3454;42.654;23.378;2024-01-16T06:23:05;1.37;;;1.27;;
6832;SDS011;3454;42.654;23.378;2024-01-16T06:25:32;2.00;;;1.70;;
6832;SDS011;3454;42.654;23.378;2024-01-16T06:27:57;1.40;;;1.13;;
6832;SDS011;3454;42.654;23.378;2024-01-16T06:30:23;1.27;;;1.17;;
6832;SDS011;3454;42.654;23.378;2024-01-16T06:32:48;2.03;;;1.43;;
6832;SDS011;3454;42.654;23.378;2024-01-16T06:35:15;1.33;;;1.20;;
6832;SDS011;3454;42.654;23.378;2024-01-16T06:37:42;1.83;;;1.40;;
6832;SDS011;3454;42.654;23.378;2024-01-16T06:40:08;2.03;;;1.23;;
6832;SDS011;3454;42.654;23.378;2024-01-16T06:42:34;3.63;;;1.57;;
6832;SDS011;3454;42.654;23.378;2024-01-16T06:45:03;2.60;;;1.50;;
6832;SDS011;3454;42.654;23.378;2024-01-16T06:47:29;3.63;;;1.30;;
6832;SDS011;3454;42.654;23.378;2024-01-16T06:49:55;1.17;;;0.90;;
6832;SDS011;3454;42.654;23.378;2024-01-16T06:52:20;2.77;;;1.20;;
6832;SDS011;3454;42.654;23.378;2024-01-16T06:54:46;1.43;;;1.30;;
6832;SDS011;3454;42.654;23.378;2024-01-16T06:57:11;1.97;;;1.10;;
6832;SDS011;3454;42.654;23.378;2024-01-16T06:59:37;1.37;;;0.83;;
6832;SDS011;3454;42.654;23.378;2024-01-16T07:02:03;1.90;;;1.10;;
6832;SDS011;3454;42.654;23.378;2024-01-16T07:04:29;1.47;;;0.90;;
6832;SDS011;3454;42.654;23.378;2024-01-16T07:06:54;1.10;;;1.00;;
6832;SDS011;3454;42.654;23.378;2024-01-16T07:09:20;1.33;;;1.23;;
6832;SDS011;3454;42.654;23.378;2024-01-16T07:11:46;1.67;;;1.10;;
6832;SDS011;3454;42.654;23.378;2024-01-16T07:14:13;1.13;;;0.80;;
6832;SDS011;3454;42.654;23.378;2024-01-16T07:16:38;1.20;;;1.10;;
6832;SDS011;3454;42.654;23.378;2024-01-16T07:19:04;1.50;;;1.33;;
6832;SDS011;3454;42.654;23.378;2024-01-16T07:21:30;1.20;;;1.07;;
6832;SDS011;3454;42.654;23.378;2024-01-16T07:23:56;2.77;;;1.60;;
6832;SDS011;3454;42.654;23.378;2024-01-16T07:26:23;1.10;;;1.00;;
6832;SDS011;3454;42.654;23.378;2024-01-16T07:28:49;1.77;;;1.33;;
6832;SDS011;3454;42.654;23.378;2024-01-16T07:31:15;2.00;;;1.03;;
6832;SDS011;3454;42.654;23.378;2024-01-16T07:33:44;1.80;;;1.30;;
6832;SDS011;3454;42.654;23.378;2024-01-16T07:36:10;3.07;;;1.47;;
6832;SDS011;3454;42.654;23.378;2024-01-16T07:38:37;2.60;;;1.20;;
6832;SDS011;3454;42.654;23.378;2024-01-16T07:41:02;1.13;;;1.03;;
6832;SDS011;3454;42.654;23.378;2024-01-16T07:43:28;1.07;;;1.00;;
6832;SDS011;3454;42.654;23.378;2024-01-16T07:45:55;1.10;;;0.90;;
6832;SDS011;3454;42.654;23.378;2024-01-16T07:48:20;4.40;;;1.00;;
6832;SDS011;3454;42.654;23.378;2024-01-16T07:50:48;1.20;;;1.10;;
6832;SDS011;3454;42.654;23.378;2024-01-16T07:53:14;4.37;;;1.10;;
6832;SDS011;3454;42.654;23.378;2024-01-16T07:55:40;1.83;;;1.23;;
6832;SDS011;3454;42.654;23.378;2024-01-16T07:58:11;1.27;;;1.17;;
6832;SDS011;3454;42.654;23.378;2024-01-16T08:00:38;1.00;;;0.90;;
6832;SDS011;3454;42.654;23.378;2024-01-16T08:03:06;1.63;;;1.30;;
6832;SDS011;3454;42.654;23.378;2024-01-16T08:05:36;3.33;;;1.30;;
6832;SDS011;3454;42.654;23.378;2024-01-16T08:08:04;2.00;;;1.50;;
6832;SDS011;3454;42.654;23.378;2024-01-16T08:10:31;1.23;;;1.00;;
6832;SDS011;3454;42.654;23.378;2024-01-16T08:12:56;2.73;;;1.37;;
6832;SDS011;3454;42.654;23.378;2024-01-16T08:15:22;3.83;;;1.97;;
6832;SDS011;3454;42.654;23.378;2024-01-16T08:17:47;2.33;;;1.40;;
6832;SDS011;3454;42.654;23.378;2024-01-16T08:20:13;1.50;;;1.40;;
6832;SDS011;3454;42.654;23.378;2024-01-16T08:22:39;2.07;;;1.40;;
6832;SDS011;3454;42.654;23.378;2024-01-16T08:25:04;2.43;;;1.37;;
6832;SDS011;3454;42.654;23.378;2024-01-16T08:27:31;1.87;;;1.40;;
6832;SDS011;3454;42.654;23.378;2024-01-16T08:29:57;1.33;;;1.20;;
6832;SDS011;3454;42.654;23.378;2024-01-16T08:32:22;1.37;;;1.10;;
6832;SDS011;3454;42.654;23.378;2024-01-16T08:34:48;1.50;;;0.97;;
6832;SDS011;3454;42.654;23.378;2024-01-16T08:37:13;1.30;;;1.20;;
6832;SDS011;3454;42.654;23.378;2024-01-16T08:39:39;1.37;;;1.27;;
6832;SDS011;3454;42.654;23.378;2024-01-16T08:42:05;2.20;;;1.20;;
6832;SDS011;3454;42.654;23.378;2024-01-16T08:44:31;1.43;;;1.27;;
6832;SDS011;3454;42.654;23.378;2024-01-16T08:46:56;1.83;;;1.50;;
6832;SDS011;3454;42.654;23.378;2024-01-16T08:49:24;1.73;;;1.50;;
6832;SDS011;3454;42.654;23.378;2024-01-16T08:51:50;2.50;;;1.40;;
6832;SDS011;3454;42.654;23.378;2024-01-16T08:54:15;1.63;;;1.10;;
6832;SDS011;3454;42.654;23.378;2024-01-16T08:56:41;1.30;;;1.00;;
6832;SDS011;3454;42.654;23.378;2024-01-16T08:59:06;2.70;;;1.40;;
6832;SDS011;3454;42.654;23.378;2024-01-16T09:01:38;3.43;;;1.10;;
6832;SDS011;3454;42.654;23.378;2024-01-16T09:04:07;1.30;;;1.20;;
6832;SDS011;3454;42.654;23.378;2024-01-16T09:06:32;2.17;;;1.47;;
6832;SDS011;3454;42.654;23.378;2024-01-16T09:08:58;1.70;;;1.10;;
6832;SDS011;3454;42.654;23.378;2024-01-16T09:11:24;1.77;;;0.90;;
6832;SDS011;3454;42.654;23.378;2024-01-16T09:13:50;1.10;;;1.00;;
6832;SDS011;3454;42.654;23.378;2024-01-16T09:16:16;1.23;;;1.03;;
6832;SDS011;3454;42.654;23.378;2024-01-16T09:18:42;0.80;;;0.80;;
6832;SDS011;3454;42.654;23.378;2024-01-16T09:21:10;1.30;;;1.20;;
6832;SDS011;3454;42.654;23.378;2024-01-16T09:23:35;3.67;;;1.53;;
6832;SDS011;3454;42.654;23.378;2024-01-16T09:26:01;1.20;;;1.10;;
6832;SDS011;3454;42.654;23.378;2024-01-16T09:28:26;1.17;;;1.07;;
6832;SDS011;3454;42.654;23.378;2024-01-16T09:30:54;2.37;;;1.07;;
6832;SDS011;3454;42.654;23.378;2024-01-16T09:33:22;1.80;;;1.30;;
6832;SDS011;3454;42.654;23.378;2024-01-16T09:35:50;1.63;;;1.20;;
6832;SDS011;3454;42.654;23.378;2024-01-16T09:38:16;1.97;;;1.13;;
6832;SDS011;3454;42.654;23.378;2024-01-16T09:40:43;1.93;;;1.30;;
6832;SDS011;3454;42.654;23.378;2024-01-16T09:43:09;1.97;;;1.30;;
6832;SDS011;3454;42.654;23.378;2024-01-16T09:45:39;2.40;;;1.40;;
6832;SDS011;3454;42.654;23.378;2024-01-16T09:48:05;2.60;;;1.40;;
6832;SDS011;3454;42.654;23.378;2024-01-16T09:50:33;4.97;;;1.27;;
6832;SDS011;3454;42.654;23.378;2024-01-16T09:52:58;1.60;;;1.50;;
6832;SDS011;3454;42.654;23.378;2024-01-16T09:55:24;1.40;;;1.30;;
6832;SDS011;3454;42.654;23.378;2024-01-16T09:57:51;1.97;;;1.37;;
6832;SDS011;3454;42.654;23.378;2024-01-16T10:00:18;2.20;;;1.40;;
6832;SDS011;3454;42.654;23.378;2024-01-16T10:02:45;3.00;;;1.70;;
6832;SDS011;3454;42.654;23.378;2024-01-16T10:05:11;1.77;;;1.20;;
6832;SDS011;3454;42.654;23.378;2024-01-16T10:07:39;3.73;;;1.57;;
6832;SDS011;3454;42.654;23.378;2024-01-16T10:10:06;2.00;;;1.23;;
6832;SDS011;3454;42.654;23.378;2024-01-16T10:12:35;1.63;;;1.50;;
6832;SDS011;3454;42.654;23.378;2024-01-16T10:15:03;2.00;;;1.27;;
6832;SDS011;3454;42.654;23.378;2024-01-16T10:17:36;3.13;;;1.40;;
6832;SDS011;3454;42.654;23.378;2024-01-16T10:20:09;2.10;;;1.60;;
6832;SDS011;3454;42.654;23.378;2024-01-16T10:22:41;1.80;;;1.20;;
6832;SDS011;3454;42.654;23.378;2024-01-16T10:25:16;2.93;;;1.70;;
6832;SDS011;3454;42.654;23.378;2024-01-16T10:27:45;3.30;;;1.70;;
6832;SDS011;3454;42.654;23.378;2024-01-16T10:30:11;3.37;;;1.60;;
6832;SDS011;3454;42.654;23.378;2024-01-16T10:32:38;4.07;;;1.40;;
6832;SDS011;3454;42.654;23.378;2024-01-16T10:35:06;4.00;;;1.50;;
6832;SDS011;3454;42.654;23.378;2024-01-16T10:37:48;1.67;;;1.47;;
6832;SDS011;3454;42.654;23.378;2024-01-16T10:43:08;2.57;;;1.33;;
6832;SDS011;3454;42.654;23.378;2024-01-16T10:45:33;3.37;;;1.47;;
6832;SDS011;3454;42.654;23.378;2024-01-16T10:48:05;1.70;;;1.17;;
6832;SDS011;3454;42.654;23.378;2024-01-16T10:50:33;2.10;;;1.30;;
6832;SDS011;3454;42.654;23.378;2024-01-16T10:53:00;1.60;;;1.20;;
6832;SDS011;3454;42.654;23.378;2024-01-16T10:55:30;1.87;;;1.57;;
6832;SDS011;3454;42.654;23.378;2024-01-16T10:57:56;3.97;;;1.37;;
6832;SDS011;3454;42.654;23.378;2024-01-16T11:00:25;1.57;;;1.20;;
6832;SDS011;3454;42.654;23.378;2024-01-16T11:05:36;1.30;;;1.20;;
6832;SDS011;3454;42.654;23.378;2024-01-16T11:08:03;2.67;;;1.30;;
6832;SDS011;3454;42.654;23.378;2024-01-16T11:10:31;1.70;;;1.27;;
6832;SDS011;3454;42.654;23.378;2024-01-16T11:12:59;3.70;;;1.43;;
6832;SDS011;3454;42.654;23.378;2024-01-16T11:15:27;2.83;;;1.23;;
6832;SDS011;3454;42.654;23.378;2024-01-16T11:17:56;1.53;;;1.33;;
6832;SDS011;3454;42.654;23.378;2024-01-16T11:20:23;6.27;;;1.70;;
6832;SDS011;3454;42.654;23.378;2024-01-16T11:22:50;2.83;;;1.50;;
6832;SDS011;3454;42.654;23.378;2024-01-16T11:25:34;1.83;;;1.50;;
6832;SDS011;3454;42.654;23.378;2024-01-16T11:28:10;2.47;;;1.60;;
6832;SDS011;3454;42.654;23.378;2024-01-16T11:30:38;2.70;;;1.67;;
6832;SDS011;3454;42.654;23.378;2024-01-16T11:33:04;1.87;;;1.50;;
6832;SDS011;3454;42.654;23.378;2024-01-16T11:38:14;2.67;;;1.63;;
6832;SDS011;3454;42.654;23.378;2024-01-16T11:40:41;1.50;;;1.13;;
6832;SDS011;3454;42.654;23.378;2024-01-16T11:46:06;1.50;;;1.20;;
6832;SDS011;3454;42.654;23.378;2024-01-16T11:48:33;2.13;;;1.57;;
6832;SDS011;3454;42.654;23.378;2024-01-16T11:50:59;5.97;;;1.70;;
6832;SDS011;3454;42.654;23.378;2024-01-16T11:53:38;3.07;;;1.60;;
6832;SDS011;3454;42.654;23.378;2024-01-16T11:58:48;4.17;;;1.70;;
6832;SDS011;3454;42.654;23.378;2024-01-16T12:01:18;4.17;;;1.57;;
6832;SDS011;3454;42.654;23.378;2024-01-16T12:04:01;2.70;;;1.90;;
6832;SDS011;3454;42.654;23.378;2024-01-16T12:06:27;2.67;;;2.07;;
6832;SDS011;3454;42.654;23.378;2024-01-16T12:08:53;3.67;;;2.20;;
6832;SDS011;3454;42.654;23.378;2024-01-16T12:11:18;2.97;;;2.00;;
6832;SDS011;3454;42.654;23.378;2024-01-16T12:13:47;3.30;;;2.27;;
6832;SDS011;3454;42.654;23.378;2024-01-16T12:16:26;2.83;;;1.50;;
6832;SDS011;3454;42.654;23.378;2024-01-16T12:19:03;1.40;;;1.27;;
6832;SDS011;3454;42.654;23.378;2024-01-16T12:21:39;1.00;;;0.97;;
6832;SDS011;3454;42.654;23.378;2024-01-16T12:24:07;1.90;;;1.60;;
6832;SDS011;3454;42.654;23.378;2024-01-16T12:26:32;2.37;;;1.60;;
6832;SDS011;3454;42.654;23.378;2024-01-16T12:28:58;2.70;;;1.60;;
6832;SDS011;3454;42.654;23.378;2024-01-16T12:31:24;4.63;;;1.97;;
6832;SDS011;3454;42.654;23.378;2024-01-16T12:33:51;3.87;;;2.00;;
6832;SDS011;3454;42.654;23.378;2024-01-16T12:36:17;5.73;;;2.13;;
6832;SDS011;3454;42.654;23.378;2024-01-16T12:38:43;3.50;;;2.37;;
6832;SDS011;3454;42.654;23.378;2024-01-16T12:41:09;3.80;;;2.30;;
6832;SDS011;3454;42.654;23.378;2024-01-16T12:43:36;3.10;;;2.20;;
6832;SDS011;3454;42.654;23.378;2024-01-16T12:46:02;4.83;;;2.60;;
6832;SDS011;3454;42.654;23.378;2024-01-16T12:48:28;2.73;;;1.90;;
6832;SDS011;3454;42.654;23.378;2024-01-16T12:51:03;3.37;;;1.90;;
6832;SDS011;3454;42.654;23.378;2024-01-16T12:53:31;4.93;;;2.13;;
6832;SDS011;3454;42.654;23.378;2024-01-16T12:55:58;4.13;;;2.10;;
6832;SDS011;3454;42.654;23.378;2024-01-16T12:58:31;2.20;;;1.80;;
6832;SDS011;3454;42.654;23.378;2024-01-16T13:03:53;5.20;;;2.00;;
6832;SDS011;3454;42.654;23.378;2024-01-16T13:06:20;3.03;;;1.90;;
6832;SDS011;3454;42.654;23.378;2024-01-16T13:08:49;1.83;;;1.47;;
6832;SDS011;3454;42.654;23.378;2024-01-16T13:11:15;3.77;;;2.10;;
6832;SDS011;3454;42.654;23.378;2024-01-16T13:13:48;2.87;;;1.90;;
6832;SDS011;3454;42.654;23.378;2024-01-16T13:16:14;2.77;;;2.07;;
6832;SDS011;3454;42.654;23.378;2024-01-16T13:18:41;2.20;;;1.53;;
6832;SDS011;3454;42.654;23.378;2024-01-16T13:21:07;2.17;;;1.40;;
6832;SDS011;3454;42.654;23.378;2024-01-16T13:23:33;1.87;;;1.27;;
6832;SDS011;3454;42.654;23.378;2024-01-16T13:26:00;2.13;;;1.73;;
6832;SDS011;3454;42.654;23.378;2024-01-16T13:28:30;2.30;;;1.40;;
6832;SDS011;3454;42.654;23.378;2024-01-16T13:30:55;3.83;;;1.90;;
6832;SDS011;3454;42.654;23.378;2024-01-16T13:33:25;2.97;;;2.20;;
6832;SDS011;3454;42.654;23.378;2024-01-16T13:35:54;2.93;;;1.80;;
6832;SDS011;3454;42.654;23.378;2024-01-16T13:38:20;4.03;;;1.60;;
6832;SDS011;3454;42.654;23.378;2024-01-16T13:40:45;6.20;;;1.80;;
6832;SDS011;3454;42.654;23.378;2024-01-16T13:43:11;3.73;;;2.03;;
6832;SDS011;3454;42.654;23.378;2024-01-16T13:45:39;6.20;;;2.07;;
6832;SDS011;3454;42.654;23.378;2024-01-16T13:48:06;4.33;;;2.30;;
6832;SDS011;3454;42.654;23.378;2024-01-16T13:50:32;4.10;;;1.90;;
6832;SDS011;3454;42.654;23.378;2024-01-16T13:52:58;6.23;;;1.60;;
6832;SDS011;3454;42.654;23.378;2024-01-16T13:55:25;1.30;;;1.10;;
6832;SDS011;3454;42.654;23.378;2024-01-16T13:57:51;1.63;;;1.50;;
6832;SDS011;3454;42.654;23.378;2024-01-16T14:00:17;2.50;;;1.80;;
6832;SDS011;3454;42.654;23.378;2024-01-16T14:02:44;6.10;;;1.50;;
6832;SDS011;3454;42.654;23.378;2024-01-16T14:05:11;1.83;;;1.60;;
6832;SDS011;3454;42.654;23.378;2024-01-16T14:07:43;2.60;;;2.00;;
6832;SDS011;3454;42.654;23.378;2024-01-16T14:10:16;3.20;;;1.93;;
6832;SDS011;3454;42.654;23.378;2024-01-16T14:12:44;2.43;;;1.87;;
6832;SDS011;3454;42.654;23.378;2024-01-16T14:15:13;3.17;;;1.33;;
6832;SDS011;3454;42.654;23.378;2024-01-16T14:17:49;2.37;;;1.70;;
6832;SDS011;3454;42.654;23.378;2024-01-16T14:20:16;4.20;;;1.60;;
6832;SDS011;3454;42.654;23.378;2024-01-16T14:22:43;3.00;;;1.73;;
6832;SDS011;3454;42.654;23.378;2024-01-16T14:25:12;2.23;;;1.53;;
6832;SDS011;3454;42.654;23.378;2024-01-16T14:27:40;1.90;;;1.73;;
6832;SDS011;3454;42.654;23.378;2024-01-16T14:30:10;6.40;;;2.03;;
6832;SDS011;3454;42.654;23.378;2024-01-16T14:32:43;5.80;;;1.87;;
6832;SDS011;3454;42.654;23.378;2024-01-16T14:35:11;5.27;;;1.97;;
6832;SDS011;3454;42.654;23.378;2024-01-16T14:37:38;2.70;;;1.30;;
6832;SDS011;3454;42.654;23.378;2024-01-16T14:40:05;3.53;;;1.53;;
6832;SDS011;3454;42.654;23.378;2024-01-16T14:42:50;3.43;;;1.83;;
6832;SDS011;3454;42.654;23.378;2024-01-16T14:45:21;2.10;;;1.87;;
6832;SDS011;3454;42.654;23.378;2024-01-16T14:47:50;2.03;;;1.40;;
6832;SDS011;3454;42.654;23.378;2024-01-16T14:50:16;7.57;;;2.07;;
6832;SDS011;3454;42.654;23.378;2024-01-16T14:52:46;3.03;;;1.50;;
6832;SDS011;3454;42.654;23.378;2024-01-16T14:55:15;3.00;;;2.00;;
6832;SDS011;3454;42.654;23.378;2024-01-16T14:57:41;3.03;;;1.93;;
6832;SDS011;3454;42.654;23.378;2024-01-16T15:00:08;2.77;;;2.13;;
6832;SDS011;3454;42.654;23.378;2024-01-16T15:02:55;6.80;;;2.03;;
6832;SDS011;3454;42.654;23.378;2024-01-16T15:05:22;5.70;;;2.60;;
6832;SDS011;3454;42.654;23.378;2024-01-16T15:07:48;2.93;;;2.30;;
6832;SDS011;3454;42.654;23.378;2024-01-16T15:10:19;3.43;;;2.00;;
6832;SDS011;3454;42.654;23.378;2024-01-16T15:12:45;4.73;;;1.77;;
6832;SDS011;3454;42.654;23.378;2024-01-16T15:15:12;2.40;;;1.83;;
6832;SDS011;3454;42.654;23.378;2024-01-16T15:17:40;4.30;;;2.03;;